Terminal Aerodrome Forecast
Issued by NWS

Home | Current Version | Previous Version | Text Only | Print | Product List | Glossary Off
Versions: 1 2 3 4 5 6 7 8 9 10 11 12

000
FTUS45 KGGW 190500
TAFOLF
TAF
KOLF 190525Z 1906/2006 23008KT P6SM SCT100
     FM190700 28016KT P6SM BKN050
     FM190900 26011KT P6SM SCT100
     FM191700 28015G23KT P6SM SKC
     FM200100 VRB05KT P6SM SKC=

USA.gov is the U.S. government's official web portal to all federal, state and local government web resources and services.